createdAt,value
2018-11-27T00:00:38.290Z,17.40
2018-11-27T00:03:58.217Z,18.57
2018-11-27T00:07:03.095Z,17.43
2018-11-27T00:10:11.443Z,16.63
2018-11-27T00:13:16.319Z,17.20
2018-11-27T00:16:21.130Z,16.80
2018-11-27T00:19:26.093Z,16.37
2018-11-27T00:22:30.988Z,16.47
2018-11-27T00:25:36.544Z,15.93
2018-11-27T00:28:41.423Z,16.50
2018-11-27T00:31:46.247Z,17.30
2018-11-27T00:34:51.248Z,16.13
2018-11-27T00:37:56.177Z,16.90
2018-11-27T00:41:01.008Z,17.43
2018-11-27T00:44:06.627Z,16.87
2018-11-27T00:47:11.548Z,17.73
2018-11-27T00:50:22.982Z,16.60
2018-11-27T00:53:27.844Z,17.37
2018-11-27T00:56:32.703Z,17.27
2018-11-27T00:59:38.099Z,16.23
2018-11-27T01:02:42.985Z,17.50
2018-11-27T01:05:47.840Z,16.30
2018-11-27T01:08:53.197Z,17.27
2018-11-27T01:11:58.043Z,17.50
2018-11-27T01:15:02.893Z,16.85
2018-11-27T01:18:08.119Z,15.50
2018-11-27T01:21:13.028Z,16.43
2018-11-27T01:24:17.994Z,15.07
2018-11-27T01:27:22.842Z,16.60
2018-11-27T01:30:27.708Z,15.53
2018-11-27T01:33:32.568Z,15.47
2018-11-27T01:36:38.003Z,16.50
2018-11-27T01:39:42.852Z,15.83
2018-11-27T01:42:48.588Z,15.60
2018-11-27T01:45:53.437Z,15.23
2018-11-27T01:48:58.356Z,15.60
2018-11-27T01:52:03.207Z,15.00
2018-11-27T01:55:09.699Z,16.33
2018-11-27T01:58:14.557Z,15.13
2018-11-27T02:01:19.364Z,16.03
2018-11-27T02:04:24.274Z,14.47
2018-11-27T02:07:29.072Z,12.90
2018-11-27T02:10:33.968Z,13.40
2018-11-27T02:13:38.814Z,12.10
2018-11-27T02:16:43.644Z,12.13
2018-11-27T02:19:48.722Z,12.10
2018-11-27T02:22:53.594Z,11.73
2018-11-27T02:25:58.438Z,11.60
2018-11-27T02:29:03.362Z,12.33
2018-11-27T02:32:08.623Z,12.20
2018-11-27T02:35:17.390Z,12.37
2018-11-27T02:38:22.277Z,12.23
2018-11-27T02:41:27.110Z,12.90
2018-11-27T02:44:31.976Z,13.80
2018-11-27T02:47:36.800Z,13.10
2018-11-27T02:50:41.803Z,12.77
2018-11-27T02:53:46.718Z,13.30
2018-11-27T02:56:51.593Z,13.83
2018-11-27T02:59:56.424Z,13.80
2018-11-27T03:03:01.307Z,12.67
2018-11-27T03:06:07.362Z,12.88
2018-11-27T03:09:12.271Z,13.20
2018-11-27T03:12:17.079Z,12.80
2018-11-27T03:15:21.978Z,11.97
2018-11-27T03:18:26.808Z,14.05
2018-11-27T03:21:31.659Z,12.80
2018-11-27T03:24:36.500Z,13.13
2018-11-27T03:27:41.323Z,13.37
2018-11-27T03:30:46.183Z,13.75
2018-11-27T03:33:51.183Z,14.00
2018-11-27T03:36:56.068Z,14.60
2018-11-27T03:40:00.972Z,14.77
2018-11-27T03:43:05.922Z,14.40
2018-11-27T03:46:10.737Z,15.67
2018-11-27T03:49:15.611Z,15.00
2018-11-27T03:52:20.440Z,14.73
2018-11-27T03:55:25.355Z,15.20
2018-11-27T03:58:30.282Z,13.37
2018-11-27T04:01:35.486Z,15.95
2018-11-27T04:04:40.473Z,15.20
2018-11-27T04:07:45.417Z,14.90
2018-11-27T04:10:50.363Z,15.93
2018-11-27T04:13:55.199Z,16.35
2018-11-27T04:17:00.138Z,16.67
2018-11-27T04:20:05.478Z,15.80
2018-11-27T04:23:10.363Z,16.47
2018-11-27T04:26:15.181Z,15.85
2018-11-27T04:29:20.154Z,14.95
2018-11-27T04:32:25.115Z,15.47
2018-11-27T04:35:30.011Z,15.20
2018-11-27T04:38:34.911Z,14.97
2018-11-27T04:41:39.849Z,16.03
2018-11-27T04:44:44.696Z,15.33
2018-11-27T04:47:49.635Z,16.90
2018-11-27T04:50:54.715Z,16.10
2018-11-27T04:53:59.544Z,15.03
2018-11-27T04:57:04.395Z,15.85
2018-11-27T05:00:29.367Z,16.48
2018-11-27T05:03:34.186Z,16.03
2018-11-27T05:06:39.175Z,15.93
2018-11-27T05:09:44.050Z,15.90
2018-11-27T05:12:48.912Z,15.57
2018-11-27T05:15:53.787Z,15.37
2018-11-27T05:18:58.588Z,15.77
2018-11-27T05:22:03.432Z,16.73
2018-11-27T05:25:10.624Z,15.83
2018-11-27T05:28:15.461Z,15.30
2018-11-27T05:31:20.317Z,16.53
2018-11-27T05:34:25.218Z,17.87
2018-11-27T05:37:30.518Z,16.20
2018-11-27T05:40:35.417Z,17.27
2018-11-27T05:43:40.277Z,17.13
2018-11-27T05:46:45.183Z,17.10
2018-11-27T05:49:50.007Z,14.70
2018-11-27T05:52:55.019Z,16.70
2018-11-27T05:55:59.939Z,15.93
2018-11-27T05:59:04.793Z,17.13
2018-11-27T06:02:09.747Z,15.75
2018-11-27T06:05:18.782Z,17.00
2018-11-27T06:08:23.641Z,16.75
2018-11-27T06:11:28.567Z,15.87
2018-11-27T06:14:33.441Z,16.80
2018-11-27T06:17:38.495Z,16.20
2018-11-27T06:20:43.361Z,17.57
2018-11-27T06:23:48.247Z,17.07
2018-11-27T06:26:53.119Z,17.33
2018-11-27T06:29:58.122Z,18.20
2018-11-27T06:33:03.001Z,19.33
2018-11-27T06:36:08.877Z,18.00
2018-11-27T06:39:13.757Z,16.13
2018-11-27T06:42:18.657Z,18.05
2018-11-27T06:45:24.229Z,18.37
2018-11-27T06:48:29.291Z,17.67
2018-11-27T06:51:34.176Z,18.60
2018-11-27T06:54:39.220Z,17.13
2018-11-27T06:57:44.221Z,17.60
2018-11-27T07:00:49.063Z,17.57
2018-11-27T07:03:53.927Z,18.40
2018-11-27T07:06:58.758Z,16.80
2018-11-27T07:10:03.657Z,18.90
2018-11-27T07:13:13.446Z,19.35
2018-11-27T07:16:18.415Z,19.10
2018-11-27T07:19:23.240Z,17.30
2018-11-27T07:22:28.165Z,17.40
2018-11-27T07:25:33.106Z,18.63
2018-11-27T07:28:38.733Z,17.70
2018-11-27T07:31:43.648Z,16.47
2018-11-27T07:34:48.471Z,18.43
2018-11-27T07:37:53.508Z,17.20
2018-11-27T07:40:58.316Z,18.73
2018-11-27T07:44:03.293Z,19.20
2018-11-27T07:47:08.846Z,23.10
2018-11-27T07:50:14.348Z,19.60
2018-11-27T07:53:19.195Z,18.35
2018-11-27T07:56:24.291Z,16.10
2018-11-27T07:59:29.224Z,17.83
2018-11-27T08:02:34.123Z,17.80
2018-11-27T08:05:42.718Z,17.47
2018-11-27T08:08:47.716Z,18.20
2018-11-27T08:11:52.644Z,17.23
2018-11-27T08:14:57.802Z,18.80
2018-11-27T08:18:02.691Z,16.80
2018-11-27T08:21:08.096Z,16.30
2018-11-27T08:24:13.011Z,18.02
2018-11-27T08:27:17.896Z,18.60
2018-11-27T08:30:24.529Z,16.83
2018-11-27T08:33:29.331Z,18.43
2018-11-27T08:36:34.256Z,18.00
2018-11-27T08:39:39.125Z,17.12
2018-11-27T08:42:44.010Z,17.95
2018-11-27T08:45:48.887Z,17.65
2018-11-27T08:48:53.765Z,17.67
2018-11-27T08:51:58.610Z,17.57
2018-11-27T08:55:03.441Z,18.10
2018-11-27T08:58:19.116Z,18.13
2018-11-27T09:01:24.125Z,17.23
2018-11-27T09:04:29.044Z,17.70
2018-11-27T09:07:33.944Z,18.73
2018-11-27T09:10:39.041Z,18.70
2018-11-27T09:13:43.911Z,17.07
2018-11-27T09:16:48.870Z,18.37
2018-11-27T09:19:53.742Z,18.20
2018-11-27T09:22:58.617Z,19.13
2018-11-27T09:26:03.453Z,18.10
2018-11-27T09:29:08.457Z,19.10
2018-11-27T09:32:13.386Z,19.20
2018-11-27T09:35:18.274Z,18.82
2018-11-27T09:38:23.182Z,18.52
2018-11-27T09:41:28.071Z,19.87
2018-11-27T09:44:32.901Z,17.20
2018-11-27T09:47:38.082Z,17.83
2018-11-27T09:50:42.987Z,18.30
2018-11-27T09:53:47.873Z,18.95
2018-11-27T09:56:52.745Z,18.20
2018-11-27T09:59:57.623Z,19.60
2018-11-27T10:03:16.086Z,20.10
2018-11-27T10:06:20.933Z,18.23
2018-11-27T10:09:25.805Z,18.53
2018-11-27T10:12:30.681Z,19.40
2018-11-27T10:15:35.658Z,18.60
2018-11-27T10:18:40.530Z,18.63
2018-11-27T10:21:45.486Z,19.37
2018-11-27T10:24:50.410Z,19.93
2018-11-27T10:27:55.302Z,18.67
2018-11-27T10:31:00.261Z,19.87
2018-11-27T10:34:05.141Z,19.53
2018-11-27T10:37:10.261Z,19.62
2018-11-27T10:40:15.232Z,19.52
2018-11-27T10:43:20.596Z,22.27
2018-11-27T10:46:25.506Z,19.60
2018-11-27T10:49:30.613Z,21.00
2018-11-27T10:52:35.582Z,20.20
2018-11-27T10:55:40.607Z,21.30
2018-11-27T10:58:45.558Z,21.23
2018-11-27T11:02:14.695Z,21.50
2018-11-27T11:05:24.496Z,20.73
2018-11-27T11:08:29.458Z,21.33
2018-11-27T11:11:34.306Z,21.02
2018-11-27T11:14:39.355Z,19.15
2018-11-27T11:17:44.262Z,21.10
2018-11-27T11:20:49.065Z,22.40
2018-11-27T11:23:54.000Z,22.00
2018-11-27T11:26:59.194Z,22.80
2018-11-27T11:30:04.182Z,22.63
2018-11-27T11:33:09.890Z,23.50
2018-11-27T11:39:28.338Z,22.63
2018-11-27T11:42:33.320Z,23.70
2018-11-27T11:45:38.189Z,23.07
2018-11-27T11:48:49.090Z,21.80
2018-11-27T11:51:48.874Z,23.70
2018-11-27T11:54:53.731Z,22.10
2018-11-27T11:57:58.584Z,22.27
2018-11-27T12:01:03.461Z,23.10
2018-11-27T12:04:08.754Z,22.65
2018-11-27T12:07:14.070Z,23.42
2018-11-27T12:10:18.879Z,25.47
2018-11-27T12:13:23.751Z,24.40
2018-11-27T12:16:28.740Z,24.57
2018-11-27T12:19:33.746Z,24.80
2018-11-27T12:22:39.715Z,25.60
2018-11-27T12:25:44.616Z,24.92
2018-11-27T12:28:49.487Z,24.03
2018-11-27T12:31:54.335Z,25.75
2018-11-27T12:34:59.202Z,25.67
2018-11-27T12:38:04.273Z,25.23
2018-11-27T12:41:10.332Z,24.80
2018-11-27T12:44:14.954Z,25.68
2018-11-27T12:47:19.811Z,24.87
2018-11-27T12:50:38.698Z,23.15
2018-11-27T12:53:43.747Z,23.20
2018-11-27T12:56:48.690Z,24.05
2018-11-27T12:59:53.530Z,22.22
2018-11-27T13:02:58.494Z,21.87
2018-11-27T13:06:03.795Z,23.67
2018-11-27T13:09:12.394Z,22.70
2018-11-27T13:12:17.341Z,24.32
2018-11-27T13:15:22.808Z,21.60
2018-11-27T13:18:27.787Z,22.43
2018-11-27T13:21:32.613Z,22.03
2018-11-27T13:24:37.521Z,24.03
2018-11-27T13:27:42.510Z,22.60
2018-11-27T13:31:02.148Z,22.42
2018-11-27T13:34:17.159Z,21.70
2018-11-27T13:37:22.050Z,21.97
2018-11-27T13:40:26.971Z,21.17
2018-11-27T13:43:32.034Z,23.27
2018-11-27T13:46:37.020Z,22.73
2018-11-27T13:49:41.876Z,21.87
2018-11-27T13:52:46.831Z,22.30
2018-11-27T13:55:51.673Z,22.30
2018-11-27T13:58:56.662Z,22.13
2018-11-27T14:02:01.650Z,21.50
2018-11-27T14:05:08.432Z,19.93
2018-11-27T14:08:13.789Z,20.77
2018-11-27T14:11:19.190Z,20.47
2018-11-27T14:14:24.224Z,20.33
2018-11-27T14:17:29.154Z,19.80
2018-11-27T14:20:34.233Z,21.00
2018-11-27T14:23:39.929Z,21.07
2018-11-27T14:26:44.894Z,23.43
2018-11-27T14:29:49.810Z,26.10
2018-11-27T14:32:55.145Z,23.57
2018-11-27T14:36:00.055Z,21.20
2018-11-27T14:39:07.349Z,21.00
2018-11-27T14:42:12.235Z,21.97
2018-11-27T14:45:24.198Z,19.93
2018-11-27T14:48:29.135Z,20.45
2018-11-27T14:51:34.022Z,19.40
2018-11-27T14:54:38.959Z,19.03
2018-11-27T14:57:43.820Z,19.43
2018-11-27T15:00:48.650Z,19.40
2018-11-27T15:03:53.524Z,19.30
2018-11-27T15:06:58.434Z,19.13
2018-11-27T15:10:03.300Z,19.43
2018-11-27T15:13:08.900Z,19.67
2018-11-27T15:16:13.764Z,19.50
2018-11-27T15:19:18.618Z,20.50
2018-11-27T15:22:23.518Z,19.70
2018-11-27T15:25:28.434Z,20.03
2018-11-27T15:28:33.336Z,19.40
2018-11-27T15:31:38.139Z,19.55
2018-11-27T15:34:42.995Z,19.77
2018-11-27T15:37:47.901Z,21.03
2018-11-27T15:40:52.772Z,23.67
2018-11-27T15:43:57.684Z,18.83
2018-11-27T15:47:02.502Z,19.93
2018-11-27T15:50:09.210Z,18.83
2018-11-27T15:53:14.116Z,17.87
2018-11-27T15:56:18.974Z,18.75
2018-11-27T15:59:23.831Z,19.47
2018-11-27T16:02:28.776Z,17.57
2018-11-27T16:05:33.647Z,18.10
2018-11-27T16:08:38.501Z,19.40
2018-11-27T16:11:43.388Z,18.20
2018-11-27T16:14:48.295Z,18.45
2018-11-27T16:17:53.158Z,17.53
2018-11-27T16:20:58.015Z,20.33
2018-11-27T16:24:02.864Z,18.67
2018-11-27T16:27:07.739Z,18.03
2018-11-27T16:30:22.592Z,20.10
2018-11-27T16:33:27.464Z,17.50
2018-11-27T16:36:32.435Z,18.50
2018-11-27T16:39:37.419Z,18.30
2018-11-27T16:42:42.351Z,16.87
2018-11-27T16:45:47.271Z,19.10
2018-11-27T16:48:52.249Z,17.80
2018-11-27T16:51:57.230Z,19.60
2018-11-27T16:55:02.266Z,20.97
2018-11-27T16:58:07.161Z,21.40
2018-11-27T17:01:12.036Z,18.57
2018-11-27T17:04:16.965Z,16.30
2018-11-27T17:07:21.960Z,17.35
2018-11-27T17:10:26.824Z,16.10
2018-11-27T17:13:31.690Z,15.30
2018-11-27T17:16:36.875Z,15.87
2018-11-27T17:19:41.725Z,14.17
2018-11-27T17:22:46.645Z,15.27
2018-11-27T17:25:51.591Z,15.80
2018-11-27T17:28:56.427Z,16.40
2018-11-27T17:32:01.311Z,17.47
2018-11-27T17:35:07.311Z,16.90
2018-11-27T17:38:12.191Z,16.83
2018-11-27T17:41:17.106Z,17.83
2018-11-27T17:44:22.079Z,16.93
2018-11-27T17:47:26.990Z,16.90
2018-11-27T17:50:31.946Z,17.30
2018-11-27T17:53:36.935Z,16.97
2018-11-27T17:56:41.956Z,17.63
2018-11-27T17:59:46.854Z,16.43
2018-11-27T18:02:55.745Z,17.17
2018-11-27T18:06:00.615Z,17.50
2018-11-27T18:09:08.394Z,18.40
2018-11-27T18:12:13.273Z,16.67
2018-11-27T18:15:22.236Z,16.27
2018-11-27T18:18:27.119Z,17.40
2018-11-27T18:21:32.250Z,15.70
2018-11-27T18:24:37.108Z,15.90
2018-11-27T18:27:42.949Z,16.60
2018-11-27T18:30:47.935Z,17.17
2018-11-27T18:33:53.016Z,17.07
2018-11-27T18:36:57.918Z,16.30
2018-11-27T18:40:02.877Z,17.20
2018-11-27T18:43:08.105Z,17.10
2018-11-27T18:46:13.029Z,16.60
2018-11-27T18:49:18.026Z,18.10
2018-11-27T18:52:22.925Z,18.70
2018-11-27T18:55:27.847Z,17.50
2018-11-27T18:58:32.740Z,19.10
2018-11-27T19:01:37.857Z,18.95
2018-11-27T19:04:42.853Z,17.23
2018-11-27T19:07:47.936Z,17.35
2018-11-27T19:10:52.814Z,16.50
2018-11-27T19:13:57.749Z,19.67
2018-11-27T19:17:02.788Z,18.45
2018-11-27T19:20:10.711Z,18.30
2018-11-27T19:23:15.618Z,18.77
2018-11-27T19:26:20.521Z,19.77
2018-11-27T19:29:25.406Z,19.13
2018-11-27T19:32:30.309Z,18.07
2018-11-27T19:35:35.269Z,19.43
2018-11-27T19:38:41.010Z,17.73
2018-11-27T19:41:45.933Z,18.20
2018-11-27T19:44:50.888Z,19.48
2018-11-27T19:47:56.338Z,17.80
2018-11-27T19:51:01.211Z,17.73
2018-11-27T19:54:06.214Z,17.77
2018-11-27T19:57:11.958Z,17.50
2018-11-27T20:00:30.077Z,17.62
2018-11-27T20:03:35.009Z,18.82
2018-11-27T20:06:40.114Z,18.30
2018-11-27T20:09:44.985Z,16.40
2018-11-27T20:12:49.931Z,17.17
2018-11-27T20:15:54.804Z,16.60
2018-11-27T20:18:59.809Z,16.30
2018-11-27T20:22:04.743Z,17.40
2018-11-27T20:25:14.484Z,15.70
2018-11-27T20:28:19.337Z,17.03
2018-11-27T20:31:24.182Z,17.13
2018-11-27T20:34:29.057Z,16.60
2018-11-27T20:37:34.070Z,16.35
2018-11-27T20:40:39.052Z,16.60
2018-11-27T20:43:43.985Z,15.13
2018-11-27T20:46:48.899Z,17.30
2018-11-27T20:49:53.915Z,17.20
2018-11-27T20:52:58.804Z,16.60
2018-11-27T20:56:03.723Z,15.47
2018-11-27T20:59:08.784Z,16.07
2018-11-27T21:02:13.643Z,16.30
2018-11-27T21:05:18.578Z,15.37
2018-11-27T21:08:24.347Z,16.77
2018-11-27T21:11:29.279Z,16.13
2018-11-27T21:14:34.252Z,15.60
2018-11-27T21:17:39.432Z,15.97
2018-11-27T21:20:45.234Z,17.00
2018-11-27T21:23:50.102Z,15.97
2018-11-27T21:26:55.002Z,16.90
2018-11-27T21:29:59.873Z,17.60
2018-11-27T21:33:04.763Z,17.03
2018-11-27T21:36:09.625Z,16.67
2018-11-27T21:39:14.538Z,16.57
2018-11-27T21:42:19.489Z,17.20
2018-11-27T21:45:31.311Z,15.90
2018-11-27T21:48:36.212Z,14.70
2018-11-27T21:51:41.553Z,17.25
2018-11-27T21:54:46.532Z,16.87
2018-11-27T21:57:51.437Z,17.17
2018-11-27T22:00:56.334Z,15.93
2018-11-27T22:04:01.243Z,16.30
2018-11-27T22:07:06.229Z,16.10
2018-11-27T22:10:18.173Z,17.03
2018-11-27T22:13:23.073Z,16.43
2018-11-27T22:16:37.857Z,19.50
2018-11-27T22:19:46.321Z,17.60
2018-11-27T22:23:09.636Z,17.63
2018-11-27T22:26:25.172Z,19.03
2018-11-27T22:29:49.756Z,18.67
2018-11-27T22:33:01.543Z,19.17
2018-11-27T22:36:09.356Z,16.90
2018-11-27T22:39:21.163Z,18.93
2018-11-27T22:42:26.083Z,15.90
2018-11-27T22:45:35.583Z,16.42
2018-11-27T22:48:40.531Z,17.23
2018-11-27T22:51:45.393Z,17.03
2018-11-27T22:54:50.246Z,17.03
2018-11-27T22:57:55.142Z,15.90
2018-11-27T23:00:59.961Z,17.13
2018-11-27T23:04:04.850Z,17.50
2018-11-27T23:07:10.609Z,14.60
2018-11-27T23:10:16.104Z,15.77
2018-11-27T23:13:21.018Z,16.45
2018-11-27T23:16:25.968Z,17.50
2018-11-27T23:19:30.798Z,17.00
2018-11-27T23:22:35.658Z,17.63
2018-11-27T23:25:40.660Z,18.10
2018-11-27T23:28:45.626Z,17.30
2018-11-27T23:31:50.517Z,18.17
2018-11-27T23:34:55.541Z,17.10
2018-11-27T23:38:00.521Z,17.70
2018-11-27T23:41:05.311Z,16.97
2018-11-27T23:44:10.232Z,17.50
2018-11-27T23:47:15.059Z,16.50
2018-11-27T23:50:21.251Z,18.40
2018-11-27T23:53:27.373Z,17.30
2018-11-27T23:56:32.246Z,17.60
2018-11-27T23:59:37.170Z,17.13
